Time;durP1;ratioP1;P1;durP2;ratioP2;P2;SDS_P1;SDS_P2;PMS_P1;PMS_P2;Temp;Humidity;BMP_temperature;BMP_pressure;BME280_temperature;BME280_humidity;BME280_pressure;Samples;Min_cycle;Max_cycle;Signal;HPM_P1;HPM_P2
2023/12/20 00:00:38;;;;;;;0.30;0.30;;;;;;;3.60;90.56;97180.06;5050092;28;20045;-72
2023/12/20 00:03:11;;;;;;;0.20;0.20;;;;;;;3.58;89.70;97169.66;5045729;28;20116;-72
2023/12/20 00:05:41;;;;;;;0.20;0.20;;;;;;;3.60;89.97;97172.13;5056445;28;20060;-71
2023/12/20 00:08:08;;;;;;;0.20;0.20;;;;;;;3.61;90.16;97163.25;5054370;28;20045;-70
2023/12/20 00:10:36;;;;;;;0.20;0.20;;;;;;;3.58;89.96;97158.28;5046205;28;20041;-72
2023/12/20 00:13:04;;;;;;;0.30;0.30;;;;;;;3.60;89.92;97166.84;5052506;28;20381;-69
2023/12/20 00:15:32;;;;;;;0.30;0.30;;;;;;;3.58;90.08;97161.75;5051137;28;20409;-71
2023/12/20 00:17:59;;;;;;;0.30;0.30;;;;;;;3.64;90.39;97160.25;5050825;28;20047;-73
2023/12/20 00:20:27;;;;;;;0.20;0.20;;;;;;;3.60;90.26;97157.13;5040563;28;20052;-70
2023/12/20 00:22:57;;;;;;;0.40;0.40;;;;;;;3.58;90.03;97145.09;5044083;28;20059;-72
2023/12/20 00:25:25;;;;;;;0.15;0.15;;;;;;;3.58;90.16;97142.44;5047496;28;20049;-72
2023/12/20 00:27:52;;;;;;;0.30;0.30;;;;;;;3.57;90.24;97140.78;5053489;28;20037;-71
2023/12/20 00:30:20;;;;;;;0.20;0.20;;;;;;;3.54;90.27;97135.84;5052251;28;20102;-69
2023/12/20 00:32:48;;;;;;;0.35;0.35;;;;;;;3.55;90.35;97137.47;5053955;28;20471;-71
2023/12/20 00:35:16;;;;;;;0.30;0.30;;;;;;;3.55;89.90;97137.47;5048784;28;20049;-72
2023/12/20 00:37:44;;;;;;;0.20;0.20;;;;;;;3.54;90.52;97136.66;5056284;28;20045;-69
2023/12/20 00:40:13;;;;;;;0.20;0.20;;;;;;;3.47;91.06;97146.22;5050965;28;20065;-72
2023/12/20 00:42:41;;;;;;;0.22;0.22;;;;;;;3.49;90.88;97132.88;5049134;28;20033;-72
2023/12/20 00:45:09;;;;;;;0.25;0.25;;;;;;;3.51;90.50;97129.09;5053830;28;20091;-72
2023/12/20 00:47:37;;;;;;;0.30;0.30;;;;;;;3.50;90.44;97132.72;5054203;28;20440;-71
2023/12/20 00:50:06;;;;;;;0.30;0.30;;;;;;;3.54;90.61;97127.91;5049267;28;20055;-72
2023/12/20 00:52:33;;;;;;;0.30;0.30;;;;;;;3.54;90.51;97123.47;5052942;28;20045;-71
2023/12/20 00:55:01;;;;;;;0.30;0.30;;;;;;;3.55;90.35;97119.00;5053750;28;20041;-72
2023/12/20 00:57:31;;;;;;;0.20;0.20;;;;;;;3.51;90.45;97120.34;5051891;28;20106;-72
2023/12/20 00:59:58;;;;;;;0.13;0.13;;;;;;;3.53;90.75;97121.03;5050390;28;20044;-72
2023/12/20 01:02:26;;;;;;;0.20;0.20;;;;;;;3.51;90.85;97125.63;5052474;28;20051;-73
2023/12/20 01:04:54;;;;;;;0.30;0.30;;;;;;;3.52;90.67;97127.28;5051861;28;20090;-70
2023/12/20 01:07:22;;;;;;;0.20;0.20;;;;;;;3.49;90.86;97132.88;5053582;28;20131;-73
2023/12/20 01:09:49;;;;;;;0.45;0.45;;;;;;;3.47;90.91;97121.66;5053582;28;20040;-70
2023/12/20 01:12:17;;;;;;;0.25;0.25;;;;;;;3.44;91.01;97121.97;5047621;28;20049;-72
2023/12/20 01:14:46;;;;;;;0.20;0.20;;;;;;;3.44;91.41;97124.59;5053657;28;20045;-70
2023/12/20 01:17:13;;;;;;;0.20;0.20;;;;;;;3.43;91.44;97121.13;5052500;28;20504;-70
2023/12/20 01:19:42;;;;;;;0.30;0.30;;;;;;;3.42;91.53;97121.31;5050374;28;20045;-72
2023/12/20 01:22:09;;;;;;;0.20;0.20;;;;;;;3.41;91.61;97117.84;5053147;28;20045;-71
2023/12/20 01:24:37;;;;;;;0.35;0.35;;;;;;;3.39;91.79;97119.00;5047970;28;20037;-72
2023/12/20 01:27:05;;;;;;;0.30;0.30;;;;;;;3.37;91.52;97119.16;5052158;28;20051;-71
2023/12/20 01:29:32;;;;;;;0.30;0.30;;;;;;;3.36;91.77;97117.50;5051189;28;20037;-69
2023/12/20 01:32:01;;;;;;;0.30;0.30;;;;;;;3.40;91.86;97120.66;5047854;28;20041;-70
2023/12/20 01:34:29;;;;;;;0.10;0.10;;;;;;;3.40;92.17;97110.94;5048769;28;20036;-71
2023/12/20 01:36:56;;;;;;;0.30;0.30;;;;;;;3.42;91.97;97108.13;5048210;28;20044;-70
2023/12/20 01:39:24;;;;;;;0.20;0.20;;;;;;;3.44;91.79;97109.59;5052556;28;20111;-70
2023/12/20 01:41:56;;;;;;;0.20;0.20;;;;;;;3.43;91.50;97105.31;5053316;28;20043;-70
2023/12/20 01:44:24;;;;;;;0.30;0.30;;;;;;;3.50;91.63;97103.69;5047804;28;20119;-71
2023/12/20 01:46:52;;;;;;;0.10;0.10;;;;;;;3.46;91.43;97101.53;5051047;28;20067;-70
2023/12/20 01:49:21;;;;;;;0.30;0.30;;;;;;;3.53;91.46;97099.91;5052428;28;20067;-70
2023/12/20 01:51:50;;;;;;;0.20;0.20;;;;;;;3.61;91.37;97098.09;5048622;28;20411;-71
2023/12/20 01:54:18;;;;;;;0.20;0.20;;;;;;;3.52;91.25;97099.09;5051343;28;20106;-72
2023/12/20 01:56:46;;;;;;;0.20;0.20;;;;;;;3.58;90.97;97089.69;5049630;28;20507;-70
2023/12/20 01:59:13;;;;;;;0.55;0.55;;;;;;;3.53;90.70;97094.63;5050233;28;20060;-71
2023/12/20 02:01:41;;;;;;;0.30;0.30;;;;;;;3.50;90.64;97081.75;5049783;28;20123;-70
2023/12/20 02:04:09;;;;;;;0.30;0.30;;;;;;;3.47;90.38;97082.09;5052027;28;20045;-70
2023/12/20 02:06:38;;;;;;;0.22;0.22;;;;;;;3.46;90.32;97075.16;5044172;28;20049;-70
2023/12/20 02:09:06;;;;;;;0.40;0.40;;;;;;;3.43;90.33;97076.28;5044248;28;20098;-70
2023/12/20 02:11:35;;;;;;;0.32;0.32;;;;;;;3.44;89.91;97071.84;5052254;28;20496;-70
2023/12/20 02:14:02;;;;;;;0.20;0.20;;;;;;;3.42;90.08;97065.94;5051733;28;20041;-71
2023/12/20 02:16:30;;;;;;;0.30;0.30;;;;;;;3.40;90.57;97068.72;5045319;28;20041;-70
2023/12/20 02:18:58;;;;;;;0.40;0.40;;;;;;;3.36;90.84;97063.94;5052457;28;20543;-70
2023/12/20 02:21:32;;;;;;;0.30;0.30;;;;;;;3.33;90.85;97059.78;5044225;28;20095;-70
2023/12/20 02:24:00;;;;;;;0.20;0.20;;;;;;;3.31;91.30;97060.00;5050984;28;20040;-73
2023/12/20 02:26:28;;;;;;;0.13;0.13;;;;;;;3.26;91.35;97051.72;5051900;28;20056;-70
2023/12/20 02:28:56;;;;;;;0.20;0.20;;;;;;;3.29;91.57;97054.03;5049983;28;20059;-70
2023/12/20 02:31:24;;;;;;;0.30;0.30;;;;;;;3.29;91.28;97058.50;5044070;28;20051;-70
2023/12/20 02:33:51;;;;;;;0.15;0.15;;;;;;;3.28;91.10;97052.38;5050224;28;20037;-70
2023/12/20 02:36:19;;;;;;;0.30;0.30;;;;;;;3.28;91.25;97057.66;5049459;28;20052;-70
2023/12/20 02:38:48;;;;;;;0.20;0.20;;;;;;;3.26;91.02;97062.28;5049938;28;20048;-72
2023/12/20 02:41:17;;;;;;;0.22;0.22;;;;;;;3.24;90.71;97051.06;5051810;28;20396;-72
2023/12/20 02:43:45;;;;;;;0.20;0.20;;;;;;;3.25;91.02;97057.97;5043732;28;20063;-70
2023/12/20 02:46:14;;;;;;;0.20;0.20;;;;;;;3.26;91.00;97057.00;5050061;28;20059;-70
2023/12/20 02:48:42;;;;;;;0.30;0.30;;;;;;;3.23;90.95;97046.78;5051259;28;20064;-70
2023/12/20 02:51:10;;;;;;;0.30;0.30;;;;;;;3.25;90.90;97047.44;5047556;28;20511;-70
2023/12/20 02:53:37;;;;;;;0.40;0.40;;;;;;;3.29;90.80;97032.13;5048972;28;20044;-70
2023/12/20 02:56:07;;;;;;;0.30;0.30;;;;;;;3.24;90.44;97029.97;5039825;28;20116;-70
2023/12/20 02:58:34;;;;;;;0.30;0.30;;;;;;;3.22;90.62;97031.09;5046545;28;20049;-70
2023/12/20 03:01:02;;;;;;;0.30;0.30;;;;;;;3.20;90.90;97036.56;5046968;28;20073;-70
2023/12/20 03:03:30;;;;;;;0.30;0.30;;;;;;;3.19;90.88;97045.47;5051062;28;20064;-72
2023/12/20 03:05:58;;;;;;;0.20;0.20;;;;;;;3.20;90.53;97033.94;5040252;28;20049;-70
2023/12/20 03:08:25;;;;;;;0.17;0.17;;;;;;;3.21;90.68;97040.03;5040663;28;20079;-70
2023/12/20 03:10:56;;;;;;;0.40;0.40;;;;;;;3.20;90.47;97041.84;5040452;28;20053;-69
2023/12/20 03:13:25;;;;;;;0.30;0.30;;;;;;;3.25;90.36;97036.06;5050782;28;20048;-70
2023/12/20 03:15:53;;;;;;;0.30;0.30;;;;;;;3.25;90.27;97030.78;5049246;28;20090;-69
2023/12/20 03:18:20;;;;;;;0.40;0.40;;;;;;;3.20;90.17;97036.56;5050701;28;20048;-70
2023/12/20 03:20:49;;;;;;;0.20;0.20;;;;;;;3.19;90.71;97042.81;5050296;28;20065;-70
2023/12/20 03:23:17;;;;;;;0.20;0.20;;;;;;;3.21;90.91;97037.41;5046988;28;20416;-70
2023/12/20 03:25:45;;;;;;;0.25;0.25;;;;;;;3.20;90.75;97036.56;5050758;28;20041;-70
2023/12/20 03:28:15;;;;;;;0.20;0.20;;;;;;;3.21;90.79;97043.50;5050438;28;20051;-71
2023/12/20 03:30:44;;;;;;;0.20;0.20;;;;;;;3.17;90.71;97038.69;5038956;28;20087;-70
2023/12/20 03:33:12;;;;;;;0.17;0.17;;;;;;;3.18;90.69;97043.81;5043558;28;20470;-70
2023/12/20 03:35:39;;;;;;;0.30;0.30;;;;;;;3.18;91.11;97041.16;5039764;28;20042;-70
2023/12/20 03:38:07;;;;;;;0.20;0.20;;;;;;;3.17;90.76;97047.44;5048030;28;20045;-70
2023/12/20 03:40:34;;;;;;;0.30;0.30;;;;;;;3.15;90.52;97038.84;5047931;28;20041;-70
2023/12/20 03:43:02;;;;;;;0.40;0.40;;;;;;;3.13;91.29;97038.19;5048357;28;20045;-71
2023/12/20 03:45:30;;;;;;;0.32;0.32;;;;;;;3.14;91.21;97036.38;5052304;28;20108;-69
2023/12/20 03:47:58;;;;;;;0.35;0.35;;;;;;;3.17;91.23;97054.50;5051063;28;20139;-69
2023/12/20 03:50:26;;;;;;;0.20;0.20;;;;;;;3.20;91.25;97052.38;5047844;28;20056;-70
2023/12/20 03:52:54;;;;;;;0.32;0.32;;;;;;;3.18;91.37;97042.97;5048949;28;20037;-72
2023/12/20 03:55:22;;;;;;;0.20;0.20;;;;;;;3.16;91.67;97055.50;5050252;28;20338;-70
2023/12/20 03:57:50;;;;;;;0.50;0.50;;;;;;;3.16;91.34;97061.59;5038797;28;20045;-71
2023/12/20 04:00:18;;;;;;;0.30;0.30;;;;;;;3.15;91.36;97052.03;5047039;28;20076;-72
2023/12/20 04:02:45;;;;;;;0.25;0.25;;;;;;;3.13;91.44;97043.44;5045122;28;20056;-70
2023/12/20 04:05:14;;;;;;;0.30;0.30;;;;;;;3.16;91.57;97047.59;5042442;28;20064;-71
2023/12/20 04:07:42;;;;;;;0.20;0.20;;;;;;;3.16;91.54;97051.06;5047454;28;20049;-70
2023/12/20 04:10:10;;;;;;;0.40;0.40;;;;;;;3.17;91.41;97047.44;5043686;28;20049;-70
2023/12/20 04:12:38;;;;;;;0.30;0.30;;;;;;;3.14;91.22;97053.00;5038817;28;20041;-71
2023/12/20 04:15:09;;;;;;;0.40;0.40;;;;;;;3.15;91.51;97054.66;5044024;28;20041;-70
2023/12/20 04:17:37;;;;;;;0.10;0.10;;;;;;;3.13;91.40;97048.72;5047270;28;20046;-70
2023/12/20 04:20:06;;;;;;;0.35;0.35;;;;;;;3.16;91.48;97056.31;5047575;28;20428;-70
2023/12/20 04:22:35;;;;;;;0.20;0.20;;;;;;;3.21;91.19;97055.84;5049494;28;20049;-70
2023/12/20 04:25:03;;;;;;;0.20;0.20;;;;;;;3.12;91.03;97052.34;5046428;28;20045;-70
2023/12/20 04:27:31;;;;;;;0.20;0.20;;;;;;;3.10;90.79;97056.97;5048802;28;20105;-71
2023/12/20 04:29:59;;;;;;;0.82;0.82;;;;;;;3.14;90.90;97049.56;5050300;28;20040;-70
2023/12/20 04:32:26;;;;;;;0.25;0.25;;;;;;;3.13;90.93;97048.72;5043916;28;20519;-70
2023/12/20 04:34:54;;;;;;;0.20;0.20;;;;;;;3.16;90.38;97052.84;5038288;28;20037;-70
2023/12/20 04:37:22;;;;;;;0.38;0.38;;;;;;;3.18;90.54;97053.53;5048956;28;20054;-69
2023/12/20 04:39:51;;;;;;;0.45;0.45;;;;;;;3.20;90.29;97067.38;5042197;28;20134;-69
2023/12/20 04:42:18;;;;;;;0.30;0.30;;;;;;;3.22;90.25;97070.66;5041996;28;20702;-69
2023/12/20 04:44:46;;;;;;;0.20;0.20;;;;;;;3.16;90.63;97068.69;5049858;28;20480;-70
2023/12/20 04:47:13;;;;;;;0.30;0.30;;;;;;;3.18;90.89;97074.63;5047517;28;20049;-71
2023/12/20 04:49:41;;;;;;;0.30;0.30;;;;;;;3.17;91.28;97065.88;5044762;28;20045;-70
2023/12/20 04:52:08;;;;;;;0.30;0.30;;;;;;;3.18;90.92;97069.34;5045232;28;20051;-70
2023/12/20 04:54:36;;;;;;;0.13;0.13;;;;;;;3.25;90.50;97079.06;5043167;28;20096;-71
2023/12/20 04:57:05;;;;;;;0.20;0.20;;;;;;;3.19;90.90;97084.19;5047976;28;20041;-71
2023/12/20 04:59:33;;;;;;;0.30;0.30;;;;;;;3.17;91.29;97078.25;5050007;28;20047;-71
2023/12/20 05:02:00;;;;;;;0.20;0.20;;;;;;;3.17;91.42;97070.31;5044386;28;20135;-70
2023/12/20 05:04:28;;;;;;;0.30;0.30;;;;;;;3.16;91.50;97077.41;5046238;28;20052;-70
2023/12/20 05:06:56;;;;;;;0.20;0.20;;;;;;;3.17;91.59;97075.59;5065940;22;20037;-73
2023/12/20 05:09:23;;;;;;;0.30;0.30;;;;;;;3.18;91.38;97072.81;5011636;28;20041;-74
2023/12/20 05:11:55;;;;;;;0.38;0.38;;;;;;;3.26;91.09;97078.09;5000313;28;20049;-74
2023/12/20 05:14:24;;;;;;;0.20;0.20;;;;;;;3.29;91.03;97083.06;5009272;28;20056;-73
2023/12/20 05:16:52;;;;;;;0.25;0.25;;;;;;;3.35;91.10;97081.56;5000478;28;20044;-74
2023/12/20 05:19:19;;;;;;;0.10;0.10;;;;;;;3.27;91.18;97079.75;5006349;28;20089;-73
2023/12/20 05:21:47;;;;;;;0.35;0.35;;;;;;;3.28;91.40;97073.50;4999322;28;20124;-73
2023/12/20 05:24:15;;;;;;;0.20;0.20;;;;;;;3.26;91.30;97087.81;4997117;28;20479;-74
2023/12/20 05:26:42;;;;;;;0.30;0.30;;;;;;;3.19;91.71;97087.66;4996168;28;20122;-73
2023/12/20 05:29:10;;;;;;;0.30;0.30;;;;;;;3.27;91.79;97098.19;4991681;28;20466;-73
2023/12/20 05:31:39;;;;;;;0.30;0.30;;;;;;;3.26;91.57;97090.44;4990692;28;20133;-75
2023/12/20 05:34:06;;;;;;;0.20;0.20;;;;;;;3.26;91.59;97085.19;5001623;28;20097;-74
2023/12/20 05:36:34;;;;;;;0.22;0.22;;;;;;;3.29;91.38;97083.06;4993398;28;20520;-75
2023/12/20 05:39:03;;;;;;;0.20;0.20;;;;;;;3.25;91.35;97092.25;4989230;28;20058;-73
2023/12/20 05:41:31;;;;;;;0.20;0.20;;;;;;;3.30;91.43;97095.25;4998092;28;20065;-74
2023/12/20 05:43:59;;;;;;;0.25;0.25;;;;;;;3.38;90.86;97098.88;4994628;28;20073;-73
2023/12/20 05:46:27;;;;;;;0.30;0.30;;;;;;;3.29;90.90;97108.59;4988327;28;20481;-73
2023/12/20 05:48:56;;;;;;;0.20;0.20;;;;;;;3.34;90.99;97098.38;4999721;28;20092;-73
2023/12/20 05:51:24;;;;;;;0.22;0.22;;;;;;;3.36;90.98;97106.13;5005516;28;20069;-72
2023/12/20 05:53:52;;;;;;;0.30;0.30;;;;;;;3.37;90.79;97107.78;5005601;28;20056;-73
2023/12/20 05:56:19;;;;;;;0.30;0.30;;;;;;;3.41;91.15;97103.84;5009724;28;20050;-73
2023/12/20 05:58:47;;;;;;;0.20;0.20;;;;;;;3.43;91.06;97118.50;5005197;28;20052;-73
2023/12/20 06:01:16;;;;;;;0.30;0.30;;;;;;;3.48;90.77;97105.66;5009215;28;20366;-74
2023/12/20 06:03:45;;;;;;;0.22;0.22;;;;;;;3.44;90.55;97103.50;5011380;28;20381;-74
2023/12/20 06:06:14;;;;;;;0.22;0.22;;;;;;;3.38;90.99;97106.78;4998531;28;20046;-73
2023/12/20 06:08:44;;;;;;;0.22;0.22;;;;;;;3.41;90.78;97101.22;5004097;28;20153;-73
2023/12/20 06:11:12;;;;;;;0.35;0.35;;;;;;;3.41;90.77;97104.66;5007142;28;20092;-73
2023/12/20 06:13:41;;;;;;;0.20;0.20;;;;;;;3.46;90.91;97104.16;5010740;28;20440;-76
2023/12/20 06:16:09;;;;;;;0.30;0.30;;;;;;;3.39;91.36;97101.38;5003845;28;20086;-73
2023/12/20 06:18:37;;;;;;;0.20;0.20;;;;;;;3.37;91.61;97113.88;5005596;28;20042;-73
2023/12/20 06:21:07;;;;;;;0.20;0.20;;;;;;;3.48;91.02;97120.66;5000019;28;20050;-74
2023/12/20 06:23:36;;;;;;;0.20;0.20;;;;;;;3.52;91.24;97127.28;5004652;28;20041;-73
2023/12/20 06:26:04;;;;;;;0.20;0.20;;;;;;;3.49;91.61;97125.78;5001151;28;20476;-74
2023/12/20 06:28:31;;;;;;;0.20;0.20;;;;;;;3.49;92.22;97130.22;5007037;28;20046;-74
2023/12/20 06:31:00;;;;;;;0.32;0.32;;;;;;;3.46;92.26;97130.53;5004552;28;20114;-74
2023/12/20 06:33:29;;;;;;;0.20;0.20;;;;;;;3.50;92.74;97142.44;5010793;28;20050;-73
2023/12/20 06:35:56;;;;;;;0.30;0.30;;;;;;;3.53;93.04;97142.13;5000183;28;20100;-73
2023/12/20 06:38:24;;;;;;;0.20;0.20;;;;;;;3.53;93.23;97147.41;5008999;28;20049;-72
2023/12/20 06:40:53;;;;;;;0.10;0.10;;;;;;;3.51;93.59;97144.09;5002730;28;20401;-73
2023/12/20 06:43:20;;;;;;;0.30;0.30;;;;;;;3.52;93.68;97138.66;4989827;28;20056;-73
2023/12/20 06:46:08;;;;;;;0.30;0.30;;;;;;;3.45;94.43;97152.63;5000098;28;20518;-72
2023/12/20 06:48:36;;;;;;;0.30;0.30;;;;;;;3.42;95.11;97143.25;5001961;28;20097;-71
2023/12/20 06:51:04;;;;;;;0.30;0.30;;;;;;;3.42;95.45;97151.16;5004200;28;20041;-72
2023/12/20 06:53:31;;;;;;;0.32;0.32;;;;;;;3.43;95.81;97151.97;5001377;28;20125;-72
2023/12/20 06:56:00;;;;;;;0.20;0.20;;;;;;;3.45;95.82;97155.25;5000169;28;20224;-72
2023/12/20 06:58:28;;;;;;;0.40;0.40;;;;;;;3.41;96.26;97157.41;4996552;28;20077;-72
2023/12/20 07:00:55;;;;;;;0.10;0.10;;;;;;;3.41;96.41;97156.59;5003443;28;20045;-72
2023/12/20 07:03:23;;;;;;;0.30;0.30;;;;;;;3.44;96.68;97161.53;5000087;28;20054;-72
2023/12/20 07:05:51;;;;;;;0.30;0.30;;;;;;;3.46;96.57;97154.28;5004026;28;20038;-72
2023/12/20 07:08:19;;;;;;;0.30;0.30;;;;;;;3.45;96.75;97157.91;5003695;28;20057;-72
2023/12/20 07:10:46;;;;;;;0.30;0.30;;;;;;;3.51;96.71;97159.91;4997129;28;20056;-73
2023/12/20 07:13:15;;;;;;;0.30;0.30;;;;;;;3.54;96.52;97167.50;5002172;28;20046;-71
2023/12/20 07:15:43;;;;;;;0.30;0.30;;;;;;;3.53;96.47;97166.66;5000342;28;20046;-72
2023/12/20 07:18:11;;;;;;;0.20;0.20;;;;;;;3.57;96.07;97164.53;5002636;28;20046;-72
2023/12/20 07:20:39;;;;;;;0.22;0.22;;;;;;;3.56;96.22;97160.25;5009321;28;20548;-72
2023/12/20 07:23:07;;;;;;;0.20;0.20;;;;;;;3.55;95.91;97162.06;5002015;28;20049;-71
2023/12/20 07:25:34;;;;;;;0.10;0.10;;;;;;;3.55;95.78;97166.50;5009453;28;20052;-72
2023/12/20 07:28:02;;;;;;;0.30;0.30;;;;;;;3.54;95.68;97170.94;5003351;28;20042;-72
2023/12/20 07:30:31;;;;;;;0.22;0.22;;;;;;;3.63;95.88;97182.38;5003984;28;20042;-71
2023/12/20 07:32:58;;;;;;;0.30;0.30;;;;;;;3.64;95.30;97179.56;4989839;28;20034;-72
2023/12/20 07:35:26;;;;;;;0.30;0.30;;;;;;;3.71;95.71;97168.38;5004667;28;20053;-71
2023/12/20 07:37:54;;;;;;;0.30;0.30;;;;;;;3.66;95.10;97174.13;5004319;28;20113;-72
2023/12/20 07:40:21;;;;;;;0.35;0.35;;;;;;;3.67;95.02;97181.03;4995997;28;20042;-72
2023/12/20 07:42:49;;;;;;;0.45;0.45;;;;;;;3.68;94.93;97180.88;5004524;28;20409;-72
2023/12/20 07:45:17;;;;;;;0.30;0.30;;;;;;;3.68;94.69;97170.34;4999573;28;20100;-72
2023/12/20 07:47:46;;;;;;;0.20;0.20;;;;;;;3.69;94.71;97182.53;5002697;28;20132;-72
2023/12/20 07:50:14;;;;;;;0.35;0.35;;;;;;;3.78;94.52;97175.47;4992461;28;20050;-73
2023/12/20 07:52:41;;;;;;;0.40;0.40;;;;;;;3.77;94.13;97175.63;5007852;28;20045;-72
2023/12/20 07:55:09;;;;;;;0.20;0.20;;;;;;;3.74;94.36;97181.25;4989133;28;20414;-71
2023/12/20 07:57:37;;;;;;;0.35;0.35;;;;;;;3.72;94.36;97177.94;4993064;28;20057;-72
2023/12/20 08:00:06;;;;;;;0.20;0.20;;;;;;;3.72;94.34;97173.47;5000993;28;20413;-72
2023/12/20 08:02:34;;;;;;;0.20;0.20;;;;;;;3.75;94.55;97185.50;5000425;28;20329;-71
2023/12/20 08:05:02;;;;;;;0.40;0.40;;;;;;;3.74;94.31;97178.59;4999739;28;20046;-72
2023/12/20 08:07:30;;;;;;;0.30;0.30;;;;;;;3.75;94.40;97183.69;4999002;28;20043;-71
2023/12/20 08:09:58;;;;;;;0.30;0.30;;;;;;;3.80;94.31;97193.78;5000188;28;20038;-72
2023/12/20 08:12:27;;;;;;;0.40;0.40;;;;;;;3.87;93.97;97182.41;5002301;28;20089;-71
2023/12/20 08:14:56;;;;;;;0.20;0.20;;;;;;;3.88;93.68;97176.13;4995660;28;20112;-72
2023/12/20 08:17:24;;;;;;;0.20;0.20;;;;;;;3.84;93.79;97177.44;4996577;28;20046;-73
2023/12/20 08:19:52;;;;;;;0.32;0.32;;;;;;;3.83;93.17;97178.44;4997150;28;20049;-72
2023/12/20 08:22:21;;;;;;;0.50;0.50;;;;;;;3.87;92.71;97181.56;4998869;28;20050;-71
2023/12/20 08:24:49;;;;;;;0.35;0.35;;;;;;;3.90;91.79;97186.53;4991102;28;20050;-71
2023/12/20 08:27:16;;;;;;;0.20;0.20;;;;;;;3.93;91.84;97188.84;4999531;28;20052;-73
2023/12/20 08:29:44;;;;;;;0.30;0.30;;;;;;;3.94;90.78;97190.50;5006642;28;20041;-71
2023/12/20 08:32:12;;;;;;;0.40;0.40;;;;;;;3.97;90.86;97187.53;4991657;28;20070;-71
2023/12/20 08:34:39;;;;;;;0.50;0.50;;;;;;;3.96;90.41;97185.88;5004338;28;20065;-72
2023/12/20 08:37:07;;;;;;;0.30;0.30;;;;;;;3.98;90.81;97182.09;5002826;28;20057;-72
2023/12/20 08:39:36;;;;;;;0.35;0.35;;;;;;;4.01;90.72;97179.13;4999158;28;20054;-72
2023/12/20 08:42:04;;;;;;;0.38;0.38;;;;;;;3.95;90.84;97182.41;4992096;28;20049;-72
2023/12/20 08:44:32;;;;;;;0.20;0.20;;;;;;;3.97;90.88;97184.88;5002132;28;20402;-72
2023/12/20 08:47:00;;;;;;;0.30;0.30;;;;;;;3.93;90.70;97196.78;5006034;28;20503;-72
2023/12/20 08:49:27;;;;;;;0.20;0.20;;;;;;;3.91;90.37;97199.56;5006851;28;20052;-71
2023/12/20 08:51:55;;;;;;;0.35;0.35;;;;;;;3.96;90.85;97204.34;5011918;28;20042;-71
2023/12/20 08:54:23;;;;;;;0.30;0.30;;;;;;;3.94;90.26;97209.81;5006534;28;20046;-72
2023/12/20 08:56:52;;;;;;;0.30;0.30;;;;;;;4.03;90.17;97205.38;5011037;28;20046;-72
2023/12/20 08:59:20;;;;;;;0.30;0.30;;;;;;;3.96;89.63;97204.34;4999442;28;20105;-72
2023/12/20 09:01:48;;;;;;;0.30;0.30;;;;;;;3.90;89.11;97205.84;5004232;28;20515;-73
2023/12/20 09:04:16;;;;;;;0.20;0.20;;;;;;;3.96;88.66;97209.63;5004192;28;20053;-72
2023/12/20 09:06:44;;;;;;;0.30;0.30;;;;;;;4.05;89.04;97219.22;5001015;28;20054;-72
2023/12/20 09:09:13;;;;;;;0.55;0.55;;;;;;;4.05;89.08;97219.22;4995932;28;20053;-72
2023/12/20 09:11:42;;;;;;;0.20;0.20;;;;;;;4.03;88.21;97215.94;4994216;28;20482;-72
2023/12/20 09:14:10;;;;;;;0.25;0.25;;;;;;;4.05;88.34;97211.28;5003447;28;20050;-71
2023/12/20 09:16:38;;;;;;;0.30;0.30;;;;;;;4.09;88.33;97206.50;5005038;28;20050;-70
2023/12/20 09:19:06;;;;;;;0.20;0.20;;;;;;;4.15;88.09;97213.81;5002094;28;20118;-73
2023/12/20 09:21:33;;;;;;;0.32;0.32;;;;;;;4.16;87.75;97216.25;5009300;28;20052;-71
2023/12/20 09:24:01;;;;;;;0.25;0.25;;;;;;;4.21;87.24;97223.69;5006178;28;20050;-70
2023/12/20 09:26:29;;;;;;;0.30;0.30;;;;;;;4.27;85.43;97217.75;5009842;28;20049;-71
2023/12/20 09:28:56;;;;;;;0.28;0.28;;;;;;;4.29;84.91;97219.25;4996572;28;20035;-71
2023/12/20 09:31:25;;;;;;;0.22;0.22;;;;;;;4.35;85.30;97223.88;4996551;28;20042;-74
2023/12/20 09:33:53;;;;;;;0.22;0.22;;;;;;;4.36;85.38;97222.06;5005368;28;20046;-71
2023/12/20 09:36:21;;;;;;;0.30;0.30;;;;;;;4.38;84.33;97236.75;4998440;28;20082;-71
2023/12/20 09:38:48;;;;;;;0.30;0.30;;;;;;;4.36;84.11;97227.34;5008285;28;20117;-71
2023/12/20 09:41:16;;;;;;;0.30;0.30;;;;;;;4.42;83.40;97232.78;4996124;28;20050;-72
2023/12/20 09:43:44;;;;;;;0.20;0.20;;;;;;;4.43;82.73;97231.81;5002051;28;20136;-71
2023/12/20 09:46:13;;;;;;;0.20;0.20;;;;;;;4.45;82.92;97229.00;5001411;28;20064;-71
2023/12/20 09:48:42;;;;;;;0.20;0.20;;;;;;;4.47;82.81;97221.72;5006399;28;20034;-72
2023/12/20 09:51:10;;;;;;;0.38;0.38;;;;;;;4.48;83.51;97219.88;4999154;28;20053;-71
2023/12/20 09:53:40;;;;;;;0.30;0.30;;;;;;;4.47;83.98;97216.41;4994245;28;20053;-71
2023/12/20 09:56:08;;;;;;;0.20;0.20;;;;;;;4.47;83.37;97221.72;4992590;28;20146;-71
2023/12/20 09:58:37;;;;;;;0.20;0.20;;;;;;;4.48;82.83;97219.88;4987900;28;20399;-71
2023/12/20 10:01:05;;;;;;;0.20;0.20;;;;;;;4.47;82.99;97216.41;5003571;28;20049;-71
2023/12/20 10:03:33;;;;;;;0.22;0.22;;;;;;;4.50;83.43;97200.25;4992003;28;20118;-72
2023/12/20 10:06:02;;;;;;;0.30;0.30;;;;;;;4.50;83.05;97208.19;5000244;28;20322;-71
2023/12/20 10:08:32;;;;;;;0.30;0.30;;;;;;;4.49;83.32;97203.06;4993867;28;20046;-71
2023/12/20 10:11:02;;;;;;;0.10;0.10;;;;;;;4.48;82.35;97182.91;4985945;28;20177;-71
2023/12/20 10:13:30;;;;;;;0.30;0.30;;;;;;;4.49;82.91;97184.56;4996757;28;20042;-71
2023/12/20 10:15:58;;;;;;;0.30;0.30;;;;;;;4.44;83.52;97177.16;4990771;28;20034;-71
2023/12/20 10:18:26;;;;;;;0.25;0.25;;;;;;;4.49;83.41;97172.16;4992046;28;20054;-71
2023/12/20 10:21:09;;;;;;;0.30;0.30;;;;;;;4.46;82.98;97180.44;4993758;28;20140;-70
2023/12/20 10:23:39;;;;;;;0.30;0.30;;;;;;;4.48;82.40;97180.25;4993823;28;20038;-71
2023/12/20 10:26:06;;;;;;;0.30;0.30;;;;;;;4.45;82.34;97170.88;4993574;28;20128;-70
2023/12/20 10:28:35;;;;;;;0.20;0.20;;;;;;;4.46;82.65;97171.69;4991937;28;20121;-70
2023/12/20 10:31:03;;;;;;;0.10;0.10;;;;;;;4.46;81.79;97155.84;4998758;28;20054;-70
2023/12/20 10:33:32;;;;;;;0.38;0.38;;;;;;;4.46;82.28;97169.06;5001119;28;20053;-70
2023/12/20 10:36:00;;;;;;;0.28;0.28;;;;;;;4.45;82.05;97170.88;4997695;28;20056;-70
2023/12/20 10:38:30;;;;;;;0.50;0.50;;;;;;;4.46;81.57;97159.31;5006088;28;20497;-71
2023/12/20 10:40:58;;;;;;;0.30;0.30;;;;;;;4.42;81.88;97161.47;4994298;28;20121;-71
2023/12/20 10:43:27;;;;;;;0.30;0.30;;;;;;;4.45;81.87;97157.66;4984588;28;20050;-70
2023/12/20 10:45:54;;;;;;;0.40;0.40;;;;;;;4.41;81.63;97154.53;4997930;28;20038;-70
2023/12/20 10:48:28;;;;;;;0.40;0.40;;;;;;;4.41;82.25;97158.97;5003420;28;20057;-71
2023/12/20 10:50:57;;;;;;;0.30;0.30;;;;;;;4.45;81.69;97149.75;4991674;28;20121;-71
2023/12/20 10:53:25;;;;;;;0.30;0.30;;;;;;;4.45;81.48;97149.75;4990569;28;20053;-71
2023/12/20 10:55:56;;;;;;;0.22;0.22;;;;;;;4.46;81.34;97140.81;4985586;28;20053;-71
2023/12/20 10:58:25;;;;;;;0.20;0.20;;;;;;;4.42;80.40;97134.22;4981100;28;20121;-71
2023/12/20 11:00:58;;;;;;;0.43;0.43;;;;;;;4.42;80.12;97137.69;4979308;28;20042;-73
2023/12/20 11:03:26;;;;;;;0.20;0.20;;;;;;;4.47;79.16;97147.72;4989715;28;20054;-70
2023/12/20 11:05:59;;;;;;;0.22;0.22;;;;;;;4.55;79.65;97137.16;4990757;28;20116;-71
2023/12/20 11:08:29;;;;;;;0.30;0.30;;;;;;;4.57;78.70;97140.44;4992466;28;20042;-71
2023/12/20 11:11:03;;;;;;;0.43;0.43;;;;;;;4.68;78.75;97128.69;4991886;28;20061;-74
2023/12/20 11:13:35;;;;;;;0.30;0.30;;;;;;;4.75;78.02;97135.78;4993412;28;20494;-73
2023/12/20 11:16:03;;;;;;;0.20;0.20;;;;;;;4.64;78.22;97124.75;4990658;28;20056;-72
2023/12/20 11:18:32;;;;;;;0.30;0.30;;;;;;;4.61;78.87;97128.56;5006176;28;20115;-71
2023/12/20 11:21:02;;;;;;;0.30;0.30;;;;;;;4.57;78.97;97129.88;5006078;28;20047;-71
2023/12/20 11:23:30;;;;;;;0.30;0.30;;;;;;;4.63;79.48;97131.03;5005842;28;20121;-72
2023/12/20 11:25:59;;;;;;;0.30;0.30;;;;;;;4.57;79.19;97127.22;5006378;28;20049;-71
2023/12/20 11:28:29;;;;;;;0.30;0.30;;;;;;;4.54;79.36;97109.09;5006303;28;20050;-71
2023/12/20 11:30:59;;;;;;;0.40;0.40;;;;;;;4.48;80.10;97120.31;5011530;28;20058;-71
2023/12/20 11:33:30;;;;;;;0.35;0.35;;;;;;;4.48;79.82;97127.41;5004008;28;20413;-72
2023/12/20 11:35:59;;;;;;;0.30;0.30;;;;;;;4.51;79.61;97124.44;5012269;28;20046;-71
2023/12/20 11:38:27;;;;;;;0.30;0.30;;;;;;;4.63;79.57;97126.56;5004049;28;20046;-72
2023/12/20 11:40:55;;;;;;;0.20;0.20;;;;;;;4.77;78.98;97120.59;5013112;28;20047;-72
2023/12/20 11:43:36;;;;;;;0.30;0.30;;;;;;;4.94;78.64;97120.53;5003044;28;20068;-72
2023/12/20 11:46:05;;;;;;;0.45;0.45;;;;;;;5.12;78.07;97110.53;4990499;28;20398;-72